Time;durP1;ratioP1;P1;durP2;ratioP2;P2;SDS_P1;SDS_P2;PMS_P1;PMS_P2;Temp;Humidity;BMP_temperature;BMP_pressure;BME280_temperature;BME280_humidity;BME280_pressure;Samples;Min_cycle;Max_cycle;Signal;HPM_P1;HPM_P2
2023/03/09 00:01:50;;;;;;;2.20;1.60;;;;;;;9.03;61.17;94227.52;106709;1274;22782;-66
2023/03/09 00:04:19;;;;;;;3.00;2.20;;;;;;;9.00;61.38;94227.64;106714;1274;22615;-65
2023/03/09 00:06:47;;;;;;;2.80;1.60;;;;;;;8.96;61.50;94226.70;106742;1274;24377;-66
2023/03/09 00:09:17;;;;;;;4.30;1.70;;;;;;;8.98;61.54;94225.41;106786;1274;25307;-66
2023/03/09 00:11:47;;;;;;;5.20;1.50;;;;;;;8.99;61.60;94225.20;107005;1274;22514;-65
2023/03/09 00:14:18;;;;;;;2.50;1.50;;;;;;;8.97;61.57;94223.51;106714;1274;25207;-66
2023/03/09 00:16:46;;;;;;;2.20;1.30;;;;;;;8.94;61.72;94220.13;106721;1274;25330;-66
2023/03/09 00:19:20;;;;;;;2.40;1.50;;;;;;;8.88;61.92;94226.80;106751;1251;24234;-66
2023/03/09 00:21:51;;;;;;;2.80;1.70;;;;;;;8.80;62.00;94234.80;106780;1269;22543;-66
2023/03/09 00:24:28;;;;;;;4.20;2.00;;;;;;;8.69;62.35;94231.63;107024;1274;25726;-66
2023/03/09 00:26:59;;;;;;;4.10;1.70;;;;;;;8.59;62.91;94230.39;106763;1274;25214;-65
2023/03/09 00:29:29;;;;;;;3.70;1.90;;;;;;;8.49;63.11;94233.53;106827;1274;22512;-66
2023/03/09 00:31:58;;;;;;;4.50;1.90;;;;;;;8.41;63.82;94226.23;106746;1274;22630;-66
2023/03/09 00:34:26;;;;;;;2.10;1.60;;;;;;;8.45;63.42;94231.56;107035;1274;22517;-66
2023/03/09 00:36:55;;;;;;;4.50;1.80;;;;;;;8.55;63.28;94226.86;106801;1274;22665;-66
2023/03/09 00:39:24;;;;;;;3.50;1.50;;;;;;;8.66;62.89;94220.02;106763;1257;24254;-66
2023/03/09 00:41:52;;;;;;;2.50;1.50;;;;;;;8.71;62.89;94215.48;106672;1274;22642;-65
2023/03/09 00:44:20;;;;;;;2.80;1.50;;;;;;;8.77;62.60;94214.91;106711;1274;22654;-66
2023/03/09 00:46:48;;;;;;;2.00;1.30;;;;;;;8.79;62.52;94219.74;106923;1274;25368;-66
2023/03/09 00:49:16;;;;;;;2.40;1.60;;;;;;;8.80;62.56;94220.43;106759;1274;22599;-65
2023/03/09 00:51:44;;;;;;;3.30;1.70;;;;;;;8.76;62.67;94227.21;106781;1274;25252;-66
2023/03/09 00:54:14;;;;;;;2.00;1.80;;;;;;;8.76;62.75;94222.13;106768;1274;24206;-66
2023/03/09 00:56:42;;;;;;;3.80;1.70;;;;;;;8.75;62.80;94222.67;106697;1274;22525;-66
2023/03/09 00:59:11;;;;;;;5.40;2.80;;;;;;;8.72;63.05;94218.05;107047;1274;26522;-66
2023/03/09 01:01:40;;;;;;;2.30;1.50;;;;;;;8.65;63.49;94211.96;106949;1274;25389;-66
2023/03/09 01:04:08;;;;;;;3.20;1.90;;;;;;;8.62;63.38;94209.42;106710;1274;22634;-65
2023/03/09 01:06:37;;;;;;;4.20;2.40;;;;;;;8.63;63.33;94205.73;106768;1274;22517;-66
2023/03/09 01:09:05;;;;;;;2.90;1.70;;;;;;;8.64;63.26;94199.39;107055;1274;24279;-66
2023/03/09 01:11:34;;;;;;;4.40;2.30;;;;;;;8.67;63.04;94194.55;106674;1274;24226;-66
2023/03/09 01:14:03;;;;;;;3.90;2.10;;;;;;;8.65;62.95;94193.57;106773;1274;22635;-66
2023/03/09 01:16:31;;;;;;;6.40;2.20;;;;;;;8.61;63.09;94191.95;106872;1274;25320;-66
2023/03/09 01:18:59;;;;;;;2.80;2.00;;;;;;;8.53;63.14;94189.93;106743;1274;22515;-66
2023/03/09 01:21:27;;;;;;;4.30;2.40;;;;;;;8.54;63.26;94189.05;107026;1274;24321;-65
2023/03/09 01:23:55;;;;;;;4.80;2.50;;;;;;;8.50;63.84;94196.17;107080;1274;23004;-66
2023/03/09 01:26:23;;;;;;;3.90;2.20;;;;;;;8.45;63.62;94194.06;107003;1274;24245;-65
2023/03/09 01:28:52;;;;;;;4.10;2.20;;;;;;;8.43;63.67;94196.05;106850;1274;23881;-66
2023/03/09 01:31:20;;;;;;;4.00;3.00;;;;;;;8.39;64.02;94188.46;106763;1274;24373;-66
2023/03/09 01:33:49;;;;;;;4.70;2.20;;;;;;;8.31;64.49;94187.63;106859;1274;24268;-65
2023/03/09 01:36:19;;;;;;;5.10;2.00;;;;;;;8.16;65.43;94184.78;106689;1274;22761;-65
2023/03/09 01:38:48;;;;;;;2.90;1.80;;;;;;;8.07;65.21;94179.48;106827;1274;25337;-65
2023/03/09 01:41:18;;;;;;;5.20;3.00;;;;;;;8.08;65.58;94177.52;107041;1274;22521;-65
2023/03/09 01:43:49;;;;;;;4.00;2.50;;;;;;;8.07;65.54;94176.16;106825;1274;22727;-66
2023/03/09 01:46:20;;;;;;;3.50;2.30;;;;;;;8.03;65.74;94173.46;106669;1274;24415;-66
2023/03/09 01:48:56;;;;;;;2.00;1.80;;;;;;;7.95;67.15;94172.50;106777;1274;22779;-66
2023/03/09 01:51:32;;;;;;;3.10;2.10;;;;;;;7.86;66.92;94179.80;106716;1274;22754;-67
2023/03/09 01:54:02;;;;;;;3.00;1.80;;;;;;;7.81;67.51;94170.30;106670;1274;22632;-66
2023/03/09 01:56:31;;;;;;;4.00;2.40;;;;;;;7.87;66.66;94168.73;106765;1274;22519;-66
2023/03/09 01:59:02;;;;;;;5.10;2.40;;;;;;;8.06;65.68;94163.90;106684;1274;24255;-67
2023/03/09 02:01:30;;;;;;;3.80;1.90;;;;;;;8.17;65.42;94162.52;106754;1274;25316;-66
2023/03/09 02:04:07;;;;;;;4.70;2.50;;;;;;;8.27;65.25;94152.73;106736;1274;22611;-66
2023/03/09 02:06:35;;;;;;;3.50;1.90;;;;;;;8.33;65.46;94160.97;106768;1274;24355;-67
2023/03/09 02:09:30;;;;;;;3.10;2.10;;;;;;;8.38;65.05;94149.41;106762;1274;25191;-66
2023/03/09 02:11:59;;;;;;;2.20;1.70;;;;;;;8.47;65.07;94143.01;106659;1274;25320;-67
2023/03/09 02:14:28;;;;;;;3.50;1.90;;;;;;;8.58;64.19;94134.20;106749;1274;25397;-66
2023/03/09 02:16:57;;;;;;;4.70;2.60;;;;;;;8.62;64.35;94122.33;106718;1274;24213;-67
2023/03/09 02:19:53;;;;;;;2.90;2.20;;;;;;;8.63;64.12;94121.40;106774;1274;25393;-66
2023/03/09 02:22:22;;;;;;;8.50;4.70;;;;;;;8.58;64.33;94115.26;106711;1274;25603;-67
2023/03/09 02:25:02;;;;;;;4.70;2.90;;;;;;;8.48;64.78;94108.43;106670;1274;25211;-66
2023/03/09 02:27:32;;;;;;;2.60;2.00;;;;;;;8.43;64.63;94110.36;106680;1274;24140;-67
2023/03/09 02:30:01;;;;;;;4.60;1.80;;;;;;;8.38;64.64;94118.73;106697;1274;25319;-67
2023/03/09 02:32:31;;;;;;;2.80;1.80;;;;;;;8.27;64.76;94123.13;106754;1274;22511;-68
2023/03/09 02:34:59;;;;;;;4.30;2.30;;;;;;;8.28;64.66;94130.30;106681;1274;22628;-66
2023/03/09 02:37:35;;;;;;;4.30;1.80;;;;;;;8.25;64.80;94130.02;106762;1274;25457;-67
2023/03/09 02:40:13;;;;;;;5.40;2.10;;;;;;;8.26;64.86;94129.12;106723;1274;24193;-66
2023/03/09 02:42:43;;;;;;;3.80;2.60;;;;;;;8.28;64.87;94135.73;106730;1274;22569;-67
2023/03/09 02:45:16;;;;;;;4.00;2.00;;;;;;;8.29;64.82;94140.06;106700;1274;24224;-66
2023/03/09 02:47:46;;;;;;;2.70;2.20;;;;;;;8.31;64.76;94138.93;106804;1274;25381;-67
2023/03/09 02:50:16;;;;;;;4.80;2.00;;;;;;;8.28;64.79;94150.08;106745;1274;22517;-67
2023/03/09 02:52:44;;;;;;;2.70;1.70;;;;;;;8.18;65.01;94153.02;106812;1251;24307;-67
2023/03/09 02:55:13;;;;;;;5.20;1.70;;;;;;;8.10;65.65;94154.33;106669;1274;25636;-67
2023/03/09 02:57:42;;;;;;;2.70;1.80;;;;;;;7.96;65.92;94147.94;106782;1274;22569;-67
2023/03/09 03:00:15;;;;;;;2.90;1.80;;;;;;;7.84;66.69;94152.20;106754;1274;22521;-67
2023/03/09 03:02:43;;;;;;;3.10;1.60;;;;;;;7.89;66.74;94151.85;106672;1274;24395;-67
2023/03/09 03:05:12;;;;;;;2.20;1.30;;;;;;;7.90;66.42;94151.48;106659;1269;22763;-67
2023/03/09 03:07:41;;;;;;;2.50;1.50;;;;;;;7.73;67.14;94153.77;106824;1274;22607;-67
2023/03/09 03:10:10;;;;;;;3.50;1.50;;;;;;;7.51;67.46;94154.21;106737;1268;24222;-67
2023/03/09 03:12:39;;;;;;;10.10;3.60;;;;;;;7.32;68.93;94150.77;106813;1274;22816;-67
2023/03/09 03:15:08;;;;;;;5.60;1.60;;;;;;;7.33;69.79;94153.73;106807;1274;25210;-67
2023/03/09 03:17:36;;;;;;;4.50;1.70;;;;;;;7.50;69.04;94150.41;106703;1274;22522;-66
2023/03/09 03:20:12;;;;;;;4.90;2.20;;;;;;;7.67;68.64;94154.29;106809;1274;24365;-66
2023/03/09 03:22:42;;;;;;;4.50;2.20;;;;;;;7.69;68.54;94157.89;106706;1274;25767;-67
2023/03/09 03:25:11;;;;;;;3.80;1.50;;;;;;;7.62;68.61;94158.63;106759;1274;22656;-67
2023/03/09 03:27:43;;;;;;;2.60;1.40;;;;;;;7.54;69.13;94162.52;106745;1274;22517;-67
2023/03/09 03:30:13;;;;;;;4.00;1.50;;;;;;;7.48;69.29;94159.93;106789;1274;22640;-67
2023/03/09 03:32:43;;;;;;;6.30;1.60;;;;;;;7.44;69.53;94169.14;106674;1274;25146;-66
2023/03/09 03:35:11;;;;;;;1.70;1.30;;;;;;;7.40;69.93;94166.98;106790;1274;24228;-66
2023/03/09 03:37:42;;;;;;;2.80;1.40;;;;;;;7.31;70.46;94170.57;106645;1274;23970;-67
2023/03/09 03:40:12;;;;;;;3.00;1.30;;;;;;;7.28;70.69;94176.27;106758;1274;24251;-67
2023/03/09 03:42:41;;;;;;;4.70;1.30;;;;;;;7.27;70.76;94163.66;106778;1257;25497;-66
2023/03/09 03:45:10;;;;;;;2.10;1.30;;;;;;;7.30;71.12;94166.92;106607;1274;24196;-67
2023/03/09 03:47:40;;;;;;;3.80;1.50;;;;;;;7.32;71.34;94163.55;106780;1274;24225;-66
2023/03/09 03:50:08;;;;;;;2.80;1.60;;;;;;;7.35;71.39;94158.55;106660;1274;22534;-66
2023/03/09 03:52:43;;;;;;;2.70;1.40;;;;;;;7.48;71.36;94155.04;106707;1274;24297;-66
2023/03/09 03:55:11;;;;;;;3.20;1.70;;;;;;;7.48;71.13;94156.77;106842;1274;22654;-66
2023/03/09 03:57:40;;;;;;;2.60;1.80;;;;;;;7.47;71.56;94162.40;106846;1274;22660;-66
2023/03/09 04:00:10;;;;;;;11.60;5.30;;;;;;;7.49;71.40;94154.45;106748;1274;24368;-66
2023/03/09 04:02:39;;;;;;;11.60;4.80;;;;;;;7.60;70.85;94151.33;106861;1274;22513;-66
2023/03/09 04:05:15;;;;;;;4.60;2.00;;;;;;;7.67;70.77;94157.27;107006;1266;22549;-67
2023/03/09 04:07:47;;;;;;;4.50;2.00;;;;;;;7.82;70.23;94145.77;106774;1274;22514;-67
2023/03/09 04:10:18;;;;;;;3.60;1.80;;;;;;;7.86;70.15;94142.67;106648;1274;25310;-67
2023/03/09 04:12:46;;;;;;;10.00;2.90;;;;;;;7.86;70.60;94141.61;106722;1274;24253;-67
2023/03/09 04:15:15;;;;;;;4.00;2.10;;;;;;;7.84;70.45;94144.11;106735;1274;22533;-66
2023/03/09 04:17:47;;;;;;;4.50;1.90;;;;;;;7.79;70.55;94141.48;106784;1274;25465;-67
2023/03/09 04:20:16;;;;;;;3.90;2.40;;;;;;;7.68;70.88;94142.34;106715;1274;25571;-67
2023/03/09 04:22:50;;;;;;;3.20;1.50;;;;;;;7.57;71.46;94142.49;106896;1274;25373;-67
2023/03/09 04:25:21;;;;;;;3.50;1.90;;;;;;;7.51;71.37;94146.17;106781;1274;22537;-64
2023/03/09 04:27:49;;;;;;;2.90;1.40;;;;;;;7.47;71.63;94139.48;106781;1274;22520;-65
2023/03/09 04:30:43;;;;;;;3.00;1.60;;;;;;;7.39;72.30;94143.92;106983;1274;22534;-65
2023/03/09 04:33:13;;;;;;;3.20;1.50;;;;;;;7.32;72.95;94149.04;106767;1274;22588;-65
2023/03/09 04:35:42;;;;;;;6.30;1.40;;;;;;;7.28;73.13;94146.34;106667;1274;25290;-65
2023/03/09 04:38:17;;;;;;;3.20;1.40;;;;;;;7.23;73.67;94150.70;106665;1274;24252;-65
2023/03/09 04:40:48;;;;;;;7.70;4.00;;;;;;;7.28;74.66;94145.27;106780;1274;22525;-64
2023/03/09 04:43:17;;;;;;;8.90;3.10;;;;;;;7.38;74.46;94142.04;106683;1274;25392;-65
2023/03/09 04:45:45;;;;;;;5.80;3.10;;;;;;;7.44;74.48;94141.15;106997;1274;22525;-65
2023/03/09 04:48:13;;;;;;;3.70;2.40;;;;;;;7.49;74.94;94137.14;106755;1274;22723;-65
2023/03/09 04:50:43;;;;;;;6.60;2.50;;;;;;;7.50;75.26;94131.34;106936;1274;25377;-63
2023/03/09 04:53:11;;;;;;;6.50;3.00;;;;;;;7.50;75.42;94130.13;106653;1274;24202;-65
2023/03/09 04:55:39;;;;;;;12.70;6.90;;;;;;;7.47;75.63;94134.08;106622;1274;22525;-65
2023/03/09 04:58:11;;;;;;;50.30;32.60;;;;;;;7.46;75.85;94131.13;106741;1274;25387;-65
2023/03/09 05:00:40;;;;;;;6.00;2.90;;;;;;;7.45;76.45;94125.54;106837;1274;22967;-65
2023/03/09 05:03:11;;;;;;;2.70;1.40;;;;;;;7.49;76.46;94127.17;106765;1274;24196;-65
2023/03/09 05:05:44;;;;;;;6.60;4.90;;;;;;;7.53;76.56;94127.41;106744;1274;24241;-65
2023/03/09 05:08:12;;;;;;;8.30;4.20;;;;;;;7.51;76.78;94124.84;106793;1274;25207;-65
2023/03/09 05:10:41;;;;;;;4.20;1.50;;;;;;;7.57;76.32;94120.28;106840;1274;24025;-65
2023/03/09 05:13:09;;;;;;;89.80;41.90;;;;;;;7.58;76.17;94118.48;107031;1274;25443;-65
2023/03/09 05:15:39;;;;;;;3.40;1.60;;;;;;;7.63;76.40;94118.52;106984;1274;24017;-64
2023/03/09 05:18:09;;;;;;;2.80;1.60;;;;;;;7.70;76.32;94116.19;106923;1274;22739;-65
2023/03/09 05:20:38;;;;;;;17.30;10.90;;;;;;;7.78;76.35;94120.16;106920;1274;24186;-65
2023/03/09 05:23:07;;;;;;;4.10;1.70;;;;;;;7.77;75.95;94116.00;106851;1274;23067;-65
2023/03/09 05:25:36;;;;;;;2.90;2.00;;;;;;;7.77;75.92;94113.86;106969;1274;22524;-65
2023/03/09 05:28:06;;;;;;;7.50;2.70;;;;;;;7.74;76.07;94113.81;106804;1274;22639;-65
2023/03/09 05:30:36;;;;;;;19.90;14.60;;;;;;;7.69;76.09;94111.16;106775;1274;25417;-65
2023/03/09 05:33:07;;;;;;;8.90;6.30;;;;;;;7.69;75.75;94118.16;106803;1274;22514;-65
2023/03/09 05:35:38;;;;;;;5.80;3.30;;;;;;;7.83;74.90;94124.91;106714;1264;24221;-65
2023/03/09 05:38:08;;;;;;;8.40;4.50;;;;;;;7.95;74.33;94118.38;106830;1274;22521;-65
2023/03/09 05:40:37;;;;;;;9.20;5.30;;;;;;;8.04;74.12;94122.13;106864;1264;24346;-65
2023/03/09 05:43:08;;;;;;;11.90;6.90;;;;;;;8.06;74.07;94126.79;106678;1274;22637;-65
2023/03/09 05:45:37;;;;;;;16.70;11.30;;;;;;;8.06;74.08;94127.33;106790;1274;25494;-65
2023/03/09 05:48:05;;;;;;;3.50;2.50;;;;;;;8.06;73.91;94125.21;106812;1274;22531;-65
2023/03/09 05:50:33;;;;;;;6.50;4.50;;;;;;;8.12;73.07;94124.84;106953;1274;24257;-65
2023/03/09 05:53:01;;;;;;;21.70;8.80;;;;;;;8.20;73.14;94130.20;106928;1274;24544;-65
2023/03/09 05:55:30;;;;;;;6.90;3.00;;;;;;;8.24;73.25;94124.82;106862;1274;25180;-65
2023/03/09 05:57:58;;;;;;;9.40;5.00;;;;;;;8.29;73.00;94127.63;106792;1274;24248;-65
2023/03/09 06:00:26;;;;;;;16.30;6.30;;;;;;;8.34;72.86;94126.08;106631;1274;22747;-65
2023/03/09 06:02:57;;;;;;;5.00;2.20;;;;;;;8.39;72.51;94127.29;106713;1274;25392;-64
2023/03/09 06:05:40;;;;;;;10.70;5.50;;;;;;;8.47;72.18;94115.98;106616;1274;22518;-65
2023/03/09 06:08:09;;;;;;;14.60;9.40;;;;;;;8.53;72.12;94115.84;106629;1274;24247;-66
2023/03/09 06:10:37;;;;;;;10.20;6.30;;;;;;;8.55;72.12;94115.89;106745;1274;22520;-66
2023/03/09 06:13:09;;;;;;;15.30;8.30;;;;;;;8.59;72.24;94116.83;106593;1274;24314;-67
2023/03/09 06:15:37;;;;;;;11.00;6.70;;;;;;;8.61;72.21;94117.98;106610;1274;22641;-66
2023/03/09 06:18:06;;;;;;;3.40;2.20;;;;;;;8.61;71.80;94115.53;106694;1274;24237;-69
2023/03/09 06:20:36;;;;;;;48.20;35.20;;;;;;;8.64;71.90;94115.95;106983;1274;25215;-68
2023/03/09 06:23:04;;;;;;;20.80;13.40;;;;;;;8.66;72.00;94111.66;106723;1274;24195;-68
2023/03/09 06:25:33;;;;;;;17.00;8.30;;;;;;;8.67;72.21;94109.71;106682;1274;22525;-68
2023/03/09 06:28:01;;;;;;;17.10;9.30;;;;;;;8.66;72.08;94106.59;106707;1274;24246;-70
2023/03/09 06:30:33;;;;;;;24.20;13.60;;;;;;;8.69;71.75;94108.61;106873;1274;25290;-67
2023/03/09 06:33:02;;;;;;;13.10;7.90;;;;;;;8.72;71.49;94105.16;106793;1274;22543;-66
2023/03/09 06:35:33;;;;;;;30.70;15.50;;;;;;;8.77;71.04;94105.70;106852;1274;25308;-73
2023/03/09 06:38:03;;;;;;;21.70;12.60;;;;;;;8.85;71.20;94100.84;106890;1274;25214;-67
2023/03/09 06:40:31;;;;;;;10.80;4.90;;;;;;;8.91;70.55;94103.45;106597;1266;23148;-66
2023/03/09 06:43:00;;;;;;;18.60;9.80;;;;;;;8.99;70.35;94102.62;106759;1274;24301;-69
2023/03/09 06:45:28;;;;;;;30.20;18.30;;;;;;;9.05;69.88;94106.25;106725;1274;25269;-69
2023/03/09 06:47:56;;;;;;;31.30;18.60;;;;;;;9.10;70.23;94113.44;106575;1274;24205;-67
2023/03/09 06:50:26;;;;;;;18.50;10.90;;;;;;;9.16;69.28;94107.09;107000;1263;24217;-67
2023/03/09 06:52:55;;;;;;;34.00;21.60;;;;;;;9.21;69.43;94098.63;106693;1274;24208;-66
2023/03/09 06:55:23;;;;;;;5.70;4.30;;;;;;;9.24;69.46;94107.67;106879;1274;22520;-67
2023/03/09 06:57:58;;;;;;;21.00;13.70;;;;;;;9.26;68.94;94115.31;106595;1274;25305;-66
2023/03/09 07:00:27;;;;;;;9.80;8.10;;;;;;;9.26;69.10;94105.82;106744;1274;22518;-69
2023/03/09 07:02:58;;;;;;;3.70;2.80;;;;;;;9.27;69.17;94096.46;106826;1274;25369;-68
2023/03/09 07:05:27;;;;;;;5.80;3.80;;;;;;;9.29;68.72;94089.91;106942;1274;22514;-67
2023/03/09 07:07:55;;;;;;;10.50;7.00;;;;;;;9.32;68.70;94087.36;106880;1274;22517;-70
2023/03/09 07:10:23;;;;;;;12.50;9.10;;;;;;;9.34;68.54;94085.02;106982;1274;22750;-67
2023/03/09 07:12:51;;;;;;;9.20;5.80;;;;;;;9.34;68.85;94087.45;106833;1274;24046;-68
2023/03/09 07:15:19;;;;;;;8.20;5.50;;;;;;;9.35;69.27;94078.83;106591;1274;22521;-69
2023/03/09 07:17:48;;;;;;;35.20;17.90;;;;;;;9.29;69.54;94082.90;106746;1274;24252;-66
2023/03/09 07:20:16;;;;;;;9.30;8.30;;;;;;;9.29;69.06;94075.52;106609;1274;24221;-67
2023/03/09 07:22:44;;;;;;;5.70;3.60;;;;;;;9.31;69.14;94073.16;106507;1275;22524;-68
2023/03/09 07:25:12;;;;;;;12.10;6.60;;;;;;;9.34;69.49;94073.08;106632;1274;22521;-68
2023/03/09 07:27:40;;;;;;;15.20;8.80;;;;;;;9.34;69.25;94073.77;106635;1274;22506;-66
2023/03/09 07:30:10;;;;;;;28.40;16.30;;;;;;;9.38;69.30;94088.70;106668;1274;22510;-67
2023/03/09 07:32:38;;;;;;;21.20;12.30;;;;;;;9.42;69.14;94086.79;106937;1274;22625;-67
2023/03/09 07:35:06;;;;;;;9.90;6.30;;;;;;;9.46;69.09;94091.58;106612;1274;22625;-67
2023/03/09 07:37:34;;;;;;;4.30;3.30;;;;;;;9.52;68.12;94089.59;106706;1275;22546;-68
2023/03/09 07:40:05;;;;;;;4.30;2.90;;;;;;;9.62;67.42;94086.53;106662;1272;22569;-65
2023/03/09 07:42:33;;;;;;;9.60;6.20;;;;;;;9.75;67.57;94090.09;106173;1263;666176;-65
2023/03/09 07:45:34;;;;;;;13.90;8.30;;;;;;;9.83;67.79;94085.55;106584;1274;24214;-67
2023/03/09 07:48:03;;;;;;;6.80;4.20;;;;;;;9.90;67.29;94086.49;106607;1274;22747;-67
2023/03/09 07:50:31;;;;;;;3.70;2.10;;;;;;;9.98;66.18;94084.77;106778;1272;22525;-68
2023/03/09 07:53:00;;;;;;;20.50;12.80;;;;;;;10.08;65.91;94086.11;106985;1274;22633;-65
2023/03/09 07:55:29;;;;;;;5.00;3.70;;;;;;;10.14;65.58;94086.58;106828;1274;22515;-66
2023/03/09 07:57:57;;;;;;;16.10;11.00;;;;;;;10.19;65.93;94090.77;106779;1273;23043;-66
2023/03/09 08:00:27;;;;;;;18.10;11.10;;;;;;;10.30;66.20;94092.80;106643;1274;25265;-67
2023/03/09 08:02:57;;;;;;;7.80;5.80;;;;;;;10.41;66.44;94095.69;106595;1274;24041;-66
2023/03/09 08:05:25;;;;;;;6.60;5.10;;;;;;;10.52;65.29;94097.70;106614;1274;24539;-69
2023/03/09 08:07:53;;;;;;;5.70;3.50;;;;;;;10.60;64.74;94092.23;106646;1274;25440;-65
2023/03/09 08:10:21;;;;;;;5.10;3.10;;;;;;;10.65;64.15;94084.30;106663;1274;24251;-65
2023/03/09 08:12:50;;;;;;;4.60;2.70;;;;;;;10.68;63.94;94080.13;106751;1274;22672;-65
2023/03/09 08:15:22;;;;;;;3.30;2.70;;;;;;;10.80;63.55;94079.61;106681;1275;26508;-66
2023/03/09 08:17:50;;;;;;;4.30;2.60;;;;;;;10.98;63.85;94061.58;107045;1275;22620;-64
2023/03/09 08:20:18;;;;;;;4.50;3.10;;;;;;;11.06;63.35;94075.45;106855;1274;22529;-67
2023/03/09 08:22:47;;;;;;;2.40;1.90;;;;;;;11.23;62.62;94073.66;106798;1266;22595;-68
2023/03/09 08:25:15;;;;;;;2.80;1.70;;;;;;;11.42;61.91;94078.23;107001;1274;25210;-65
2023/03/09 08:27:48;;;;;;;3.40;2.40;;;;;;;11.67;63.47;94079.53;106745;1274;22689;-66
2023/03/09 08:30:20;;;;;;;1.90;1.50;;;;;;;11.83;60.99;94081.96;106687;1275;22706;-65
2023/03/09 08:32:49;;;;;;;5.00;2.80;;;;;;;11.66;60.17;94089.95;106966;1274;24058;-63
2023/03/09 08:35:20;;;;;;;4.80;1.70;;;;;;;11.60;60.81;94092.41;106793;1257;25377;-68
2023/03/09 08:37:49;;;;;;;3.60;2.70;;;;;;;11.55;60.79;94088.06;106761;1274;22525;-69
2023/03/09 08:40:17;;;;;;;2.90;1.60;;;;;;;11.58;61.18;94083.14;106707;1274;22561;-66
2023/03/09 08:42:46;;;;;;;2.00;1.30;;;;;;;11.58;61.11;94087.88;106807;1274;22636;-66
2023/03/09 08:45:14;;;;;;;4.90;2.20;;;;;;;11.63;60.77;94083.06;106711;1274;23898;-64
2023/03/09 08:47:42;;;;;;;3.40;1.60;;;;;;;11.70;60.44;94098.41;106718;1274;24203;-67
2023/03/09 08:50:11;;;;;;;3.80;2.20;;;;;;;11.69;59.86;94097.20;107044;1274;25377;-66
2023/03/09 08:52:40;;;;;;;2.30;1.40;;;;;;;11.68;60.24;94090.23;106932;1274;22593;-67
2023/03/09 08:55:11;;;;;;;2.50;2.10;;;;;;;11.75;61.05;94088.68;106688;1274;22517;-64
2023/03/09 08:57:39;;;;;;;9.80;5.10;;;;;;;11.87;60.43;94098.54;106782;1274;24202;-65
2023/03/09 09:00:09;;;;;;;7.30;1.90;;;;;;;11.96;59.92;94104.45;106709;1275;22969;-66
2023/03/09 09:02:38;;;;;;;5.10;3.30;;;;;;;11.96;59.35;94095.83;106807;1275;24233;-66
2023/03/09 09:05:08;;;;;;;2.90;2.20;;;;;;;11.88;59.33;94103.23;106783;1274;24246;-65
2023/03/09 09:07:37;;;;;;;2.20;1.80;;;;;;;11.76;59.44;94098.52;106725;1274;22521;-64
2023/03/09 09:10:05;;;;;;;4.80;2.90;;;;;;;11.62;59.97;94108.64;106750;1274;22534;-64
2023/03/09 09:12:37;;;;;;;7.80;3.90;;;;;;;11.54;60.45;94115.38;106712;1274;25951;-64
2023/03/09 09:15:13;;;;;;;10.00;7.50;;;;;;;11.50;60.50;94116.63;106667;1274;24849;-65
2023/03/09 09:17:42;;;;;;;3.50;1.60;;;;;;;11.54;60.67;94119.77;106913;1275;23759;-63
2023/03/09 09:20:12;;;;;;;4.10;1.60;;;;;;;11.58;61.16;94120.45;106746;1274;22643;-64
2023/03/09 09:22:41;;;;;;;2.60;2.40;;;;;;;11.58;60.98;94118.71;106728;1274;25457;-65
2023/03/09 09:25:10;;;;;;;4.40;2.50;;;;;;;11.63;61.06;94112.99;106676;1266;24440;-67
2023/03/09 09:27:39;;;;;;;3.00;1.30;;;;;;;11.72;60.91;94108.39;106782;1274;25537;-69
2023/03/09 09:30:09;;;;;;;3.00;1.70;;;;;;;11.76;61.26;94110.83;106748;1274;22519;-70
2023/03/09 09:32:40;;;;;;;6.40;1.80;;;;;;;11.92;61.29;94112.57;107029;1274;25342;-68
2023/03/09 09:35:08;;;;;;;3.20;2.00;;;;;;;11.98;60.25;94114.21;106934;1274;22527;-66
2023/03/09 09:37:37;;;;;;;3.60;1.20;;;;;;;11.92;60.01;94110.97;106686;1274;22629;-66
2023/03/09 09:40:13;;;;;;;2.20;1.50;;;;;;;11.89;60.38;94104.42;106746;1274;25612;-66
2023/03/09 09:42:43;;;;;;;1.60;1.00;;;;;;;11.94;60.54;94109.99;106740;1274;23204;-69
2023/03/09 09:45:23;;;;;;;1.80;1.40;;;;;;;11.95;60.40;94097.45;106697;1274;22596;-70
2023/03/09 09:47:54;;;;;;;1.60;1.20;;;;;;;12.00;60.69;94111.33;106673;1274;25473;-68
2023/03/09 09:50:46;;;;;;;2.20;0.90;;;;;;;11.98;60.48;94112.09;106772;1275;22964;-65
2023/03/09 09:53:36;;;;;;;4.40;1.50;;;;;;;11.95;60.31;94109.44;106585;1274;25220;-67
2023/03/09 09:56:10;;;;;;;5.00;1.40;;;;;;;11.90;60.22;94106.14;106753;1274;24473;-63
2023/03/09 09:59:02;;;;;;;1.70;1.30;;;;;;;11.79;60.66;94114.55;106775;1274;24279;-65
2023/03/09 10:01:45;;;;;;;1.50;1.30;;;;;;;11.71;60.79;94114.77;106905;1274;25427;-67
2023/03/09 10:04:21;;;;;;;;;;;;;;;11.71;61.28;94117.04;107047;1274;24278;-65
2023/03/09 10:19:01;;;;;;;2.90;2.20;;;;;;;12.10;60.04;94109.79;104493;1304;558078;-65
2023/03/09 10:21:54;;;;;;;3.80;3.00;;;;;;;12.00;59.84;94104.81;105838;1287;178664;-65
2023/03/09 10:24:29;;;;;;;4.00;2.10;;;;;;;11.97;60.50;94096.46;106150;1287;22530;-65
2023/03/09 10:27:15;;;;;;;2.90;1.30;;;;;;;11.98;59.98;94103.81;105998;1287;25520;-65
2023/03/09 10:29:47;;;;;;;3.20;1.30;;;;;;;12.09;60.08;94094.13;105971;1287;25349;-65
2023/03/09 10:32:45;;;;;;;5.20;3.90;;;;;;;12.29;60.13;94093.33;105884;1287;22650;-65
2023/03/09 10:35:26;;;;;;;2.40;1.90;;;;;;;12.47;60.18;94084.52;105852;1287;22643;-65
2023/03/09 10:37:55;;;;;;;1.20;1.10;;;;;;;12.70;60.56;94082.46;105930;1287;22530;-65
2023/03/09 10:40:29;;;;;;;3.10;1.30;;;;;;;12.79;58.63;94078.67;105857;1287;22550;-65
2023/03/09 10:42:58;;;;;;;1.70;1.60;;;;;;;12.84;58.28;94082.45;105717;1287;24403;-65
2023/03/09 10:45:32;;;;;;;4.10;1.60;;;;;;;12.80;58.06;94067.15;106006;1287;22533;-65
2023/03/09 10:48:05;;;;;;;3.00;2.20;;;;;;;12.77;57.94;94075.73;105796;1287;22649;-65
2023/03/09 10:50:40;;;;;;;;;;;;;;;12.69;58.42;94075.62;105840;1287;22500;-64
2023/03/09 10:53:20;;;;;;;3.20;1.20;;;;;;;12.76;58.20;94067.71;105858;1287;24013;-65
2023/03/09 10:55:50;;;;;;;4.00;1.80;;;;;;;12.81;58.22;94056.68;105822;1287;25604;-65
2023/03/09 10:58:33;;;;;;;2.10;1.10;;;;;;;12.86;57.73;94062.08;105829;1287;22639;-65
2023/03/09 11:01:11;;;;;;;5.40;1.40;;;;;;;12.90;57.92;94052.16;105912;1287;25508;-65
2023/03/09 11:03:41;;;;;;;1.80;1.30;;;;;;;12.86;57.99;94042.67;106204;1258;22649;-65
2023/03/09 11:06:12;;;;;;;2.00;1.20;;;;;;;12.91;58.38;94036.74;106255;1281;25278;-65
2023/03/09 11:08:43;;;;;;;3.50;1.40;;;;;;;12.88;57.96;94043.58;106254;1280;24273;-65
2023/03/09 11:11:32;;;;;;;5.70;1.80;;;;;;;12.92;58.20;94030.83;106157;1280;22539;-65
2023/03/09 11:14:00;;;;;;;3.00;1.70;;;;;;;12.80;58.31;94026.20;106315;1280;22879;-65
2023/03/09 11:16:34;;;;;;;2.80;1.70;;;;;;;12.76;59.03;94018.48;106234;1280;25415;-65
2023/03/09 11:19:21;;;;;;;3.10;2.20;;;;;;;12.72;59.31;94018.30;106254;1280;24273;-65
2023/03/09 11:21:55;;;;;;;2.70;1.40;;;;;;;12.75;59.87;94008.83;106241;1281;25354;-65
2023/03/09 11:24:29;;;;;;;1.60;1.50;;;;;;;12.75;59.99;94011.11;106220;1281;25626;-65
2023/03/09 11:27:07;;;;;;;2.70;1.50;;;;;;;12.67;59.41;94012.59;106234;1263;23932;-65
2023/03/09 11:29:49;;;;;;;2.00;1.30;;;;;;;12.63;59.87;94004.50;106232;1280;22551;-65
2023/03/09 11:32:17;;;;;;;2.20;1.30;;;;;;;12.56;59.87;93999.42;106233;1281;22790;-65
2023/03/09 11:34:47;;;;;;;5.40;1.60;;;;;;;12.55;60.67;93995.73;106306;1280;25333;-65
2023/03/09 11:37:38;;;;;;;1.80;1.20;;;;;;;12.59;60.54;94008.79;106268;1280;25363;-65
2023/03/09 11:40:18;;;;;;;2.30;1.40;;;;;;;12.59;60.29;94001.02;106231;1281;24202;-65
2023/03/09 11:42:55;;;;;;;2.10;1.10;;;;;;;12.53;60.14;93994.64;106257;1281;25265;-65
2023/03/09 11:45:29;;;;;;;2.00;1.20;;;;;;;12.41;60.26;94001.23;106298;1281;22617;-65
2023/03/09 11:48:07;;;;;;;4.60;1.40;;;;;;;12.33;60.74;93996.87;106201;1281;24236;-65
2023/03/09 11:50:45;;;;;;;3.40;1.70;;;;;;;12.21;61.09;93998.55;106253;1280;23024;-65
2023/03/09 11:53:21;;;;;;;2.50;1.20;;;;;;;12.11;61.80;93991.99;106200;1281;22646;-65
2023/03/09 11:55:55;;;;;;;2.50;1.30;;;;;;;12.05;62.16;93984.32;106572;1279;22768;-65
2023/03/09 11:58:35;;;;;;;1.80;1.30;;;;;;;12.03;62.39;93989.23;106368;1279;25422;-65
2023/03/09 12:01:22;;;;;;;3.50;1.10;;;;;;;12.05;62.52;93981.88;106377;1267;22527;-65